createdAt,value
2022-12-18T00:00:42.421Z,33.97
2022-12-18T00:03:45.135Z,37.22
2022-12-18T00:06:50.103Z,23.75
2022-12-18T00:09:52.120Z,33.67
2022-12-18T00:12:54.115Z,40.75
2022-12-18T00:15:56.592Z,35.25
2022-12-18T00:18:59.088Z,29.48
2022-12-18T00:22:01.154Z,40.10
2022-12-18T00:25:03.594Z,32.63
2022-12-18T00:28:05.708Z,25.48
2022-12-18T00:31:09.565Z,26.90
2022-12-18T00:34:13.078Z,34.03
2022-12-18T00:37:19.866Z,28.73
2022-12-18T00:40:26.367Z,27.33
2022-12-18T00:43:29.505Z,37.45
2022-12-18T00:46:32.007Z,35.30
2022-12-18T00:49:34.026Z,36.33
2022-12-18T00:52:36.017Z,22.98
2022-12-18T00:55:42.501Z,35.03
2022-12-18T00:58:44.471Z,38.38
2022-12-18T01:01:47.000Z,28.70
2022-12-18T01:04:49.188Z,37.67
2022-12-18T01:07:56.087Z,49.08
2022-12-18T01:10:58.090Z,40.67
2022-12-18T01:14:01.180Z,50.03
2022-12-18T01:17:04.695Z,27.50
2022-12-18T01:20:09.701Z,38.60
2022-12-18T01:23:11.686Z,39.15
2022-12-18T01:26:18.112Z,50.53
2022-12-18T01:29:20.157Z,46.45
2022-12-18T01:32:23.071Z,46.67
2022-12-18T01:35:25.688Z,46.70
2022-12-18T01:38:29.553Z,42.75
2022-12-18T01:41:52.463Z,38.67
2022-12-18T01:44:56.686Z,40.78
2022-12-18T01:48:00.225Z,31.98
2022-12-18T01:51:02.396Z,21.08
2022-12-18T01:54:04.458Z,46.85
2022-12-18T01:57:06.570Z,44.45
2022-12-18T02:00:11.273Z,40.45
2022-12-18T02:03:16.124Z,35.63
2022-12-18T02:06:21.864Z,35.80
2022-12-18T02:09:33.260Z,41.15
2022-12-18T02:12:41.115Z,38.30
2022-12-18T02:16:01.808Z,42.45
2022-12-18T02:19:16.872Z,43.10
2022-12-18T02:22:35.681Z,37.55
2022-12-18T02:25:56.504Z,47.53
2022-12-18T02:29:03.069Z,44.50
2022-12-18T02:32:09.335Z,30.27
2022-12-18T02:35:15.931Z,29.43
2022-12-18T02:38:18.884Z,41.63
2022-12-18T02:41:24.258Z,39.78
2022-12-18T02:44:27.445Z,28.93
2022-12-18T02:47:32.390Z,18.00
2022-12-18T02:50:42.884Z,48.10
2022-12-18T02:53:47.135Z,30.63
2022-12-18T02:56:55.153Z,34.72
2022-12-18T03:00:01.638Z,40.70
2022-12-18T03:03:07.760Z,41.55
2022-12-18T03:06:21.925Z,50.87
2022-12-18T03:09:33.987Z,40.58
2022-12-18T03:12:38.896Z,44.67
2022-12-18T03:15:48.155Z,33.63
2022-12-18T03:18:53.430Z,49.92
2022-12-18T03:21:56.733Z,40.70
2022-12-18T03:25:02.062Z,44.88
2022-12-18T03:28:07.133Z,46.85
2022-12-18T03:31:11.218Z,41.55
2022-12-18T03:34:18.465Z,39.17
2022-12-18T03:37:22.288Z,47.93
2022-12-18T03:40:28.029Z,42.58
2022-12-18T03:43:48.995Z,36.83
2022-12-18T03:46:51.269Z,38.33
2022-12-18T03:50:12.507Z,38.40
2022-12-18T03:53:34.997Z,49.92
2022-12-18T03:56:39.242Z,42.95
2022-12-18T03:59:42.474Z,41.90
2022-12-18T04:02:47.094Z,41.45
2022-12-18T04:05:55.861Z,49.83
2022-12-18T04:08:59.075Z,54.93
2022-12-18T04:12:01.896Z,46.15
2022-12-18T04:15:05.425Z,50.67
2022-12-18T04:18:07.583Z,49.87
2022-12-18T04:21:15.860Z,47.70
2022-12-18T04:24:18.023Z,52.42
2022-12-18T04:27:29.233Z,48.72
2022-12-18T04:30:33.664Z,46.47
2022-12-18T04:33:35.982Z,44.63
2022-12-18T04:36:38.776Z,50.35
2022-12-18T04:39:41.063Z,51.40
2022-12-18T04:42:50.318Z,43.88
2022-12-18T04:45:52.405Z,51.72
2022-12-18T04:48:54.475Z,51.53
2022-12-18T04:51:56.542Z,56.85
2022-12-18T04:54:58.535Z,58.20
2022-12-18T04:58:00.526Z,52.33
2022-12-18T05:01:02.691Z,36.35
2022-12-18T05:04:05.336Z,49.40
2022-12-18T05:07:07.396Z,43.08
2022-12-18T05:10:09.601Z,52.90
2022-12-18T05:13:12.464Z,54.72
2022-12-18T05:16:14.652Z,49.63
2022-12-18T05:19:16.895Z,51.90
2022-12-18T05:22:18.961Z,50.58
2022-12-18T05:25:21.421Z,53.33
2022-12-18T05:28:24.700Z,59.28
2022-12-18T05:31:26.811Z,59.45
2022-12-18T05:34:28.882Z,53.85
2022-12-18T05:37:30.859Z,68.68
2022-12-18T05:40:32.880Z,51.83
2022-12-18T05:43:35.995Z,56.95
2022-12-18T05:46:38.125Z,58.92
2022-12-18T05:49:42.892Z,58.83
2022-12-18T05:52:45.016Z,42.58
2022-12-18T05:55:47.380Z,49.63
2022-12-18T05:58:52.300Z,61.00
2022-12-18T06:01:54.393Z,45.30
2022-12-18T06:04:56.456Z,53.10
2022-12-18T06:07:58.489Z,57.33
2022-12-18T06:11:00.557Z,61.10
2022-12-18T06:14:03.081Z,44.20
2022-12-18T06:17:05.092Z,69.75
2022-12-18T06:20:08.042Z,61.83
2022-12-18T06:23:10.491Z,64.20
2022-12-18T06:26:13.252Z,59.10
2022-12-18T06:29:15.246Z,62.60
2022-12-18T06:32:17.801Z,62.60
2022-12-18T06:35:19.792Z,70.47
2022-12-18T06:38:23.135Z,62.85
2022-12-18T06:41:25.160Z,66.13
2022-12-18T06:44:27.126Z,63.28
2022-12-18T06:47:29.358Z,62.28
2022-12-18T06:50:31.357Z,61.63
2022-12-18T06:53:34.295Z,52.70
2022-12-18T06:56:36.317Z,67.68
2022-12-18T06:59:38.277Z,66.20
2022-12-18T07:02:40.466Z,50.92
2022-12-18T07:05:42.500Z,64.90
2022-12-18T07:08:44.775Z,51.63
2022-12-18T07:11:46.718Z,60.40
2022-12-18T07:14:48.696Z,63.58
2022-12-18T07:17:50.684Z,62.72
2022-12-18T07:20:52.664Z,56.00
2022-12-18T07:23:54.936Z,57.30
2022-12-18T07:26:56.941Z,56.63
2022-12-18T07:29:58.928Z,51.88
2022-12-18T07:33:01.023Z,55.10
2022-12-18T07:36:04.694Z,58.50
2022-12-18T07:39:06.825Z,57.90
2022-12-18T07:42:27.344Z,55.93
2022-12-18T07:45:29.995Z,57.28
2022-12-18T07:48:32.239Z,62.25
2022-12-18T07:51:34.219Z,63.83
2022-12-18T07:54:36.257Z,57.22
2022-12-18T07:57:59.224Z,56.50
2022-12-18T08:01:07.664Z,57.33
2022-12-18T08:04:09.717Z,62.88
2022-12-18T08:07:11.793Z,59.70
2022-12-18T08:10:14.090Z,55.15
2022-12-18T08:13:16.092Z,49.57
2022-12-18T08:16:18.712Z,57.60
2022-12-18T08:19:21.301Z,50.90
2022-12-18T08:22:23.335Z,58.47
2022-12-18T08:25:25.536Z,62.13
2022-12-18T08:28:27.519Z,61.88
2022-12-18T08:31:30.460Z,50.38
2022-12-18T08:34:32.571Z,58.58
2022-12-18T08:37:34.807Z,65.13
2022-12-18T08:40:36.815Z,58.88
2022-12-18T08:43:57.459Z,60.53
2022-12-18T08:46:59.468Z,55.50
2022-12-18T08:50:01.490Z,58.38
2022-12-18T08:53:03.628Z,72.33
2022-12-18T08:56:05.993Z,72.43
2022-12-18T08:59:08.039Z,57.47
2022-12-18T09:02:13.207Z,59.65
2022-12-18T09:05:15.305Z,59.85
2022-12-18T09:08:17.306Z,55.33
2022-12-18T09:11:23.818Z,63.33
2022-12-18T09:14:25.820Z,62.93
2022-12-18T09:17:27.872Z,61.60
2022-12-18T09:20:31.009Z,62.45
2022-12-18T09:23:33.066Z,67.57
2022-12-18T09:26:35.096Z,82.43
2022-12-18T09:29:37.689Z,79.32
2022-12-18T09:32:39.667Z,62.97
2022-12-18T09:35:42.672Z,83.97
2022-12-18T09:38:44.871Z,73.53
2022-12-18T09:41:54.682Z,65.90
2022-12-18T09:44:56.823Z,61.72
2022-12-18T09:47:58.882Z,65.28
2022-12-18T09:51:06.924Z,55.67
2022-12-18T09:54:13.330Z,36.28
2022-12-18T09:57:19.768Z,54.50
2022-12-18T10:00:23.312Z,42.33
2022-12-18T10:03:25.376Z,41.33
2022-12-18T10:06:36.848Z,41.28
2022-12-18T10:09:44.338Z,46.60
2022-12-18T10:12:59.524Z,45.58
2022-12-18T10:16:04.693Z,38.77
2022-12-18T10:19:12.646Z,35.78
2022-12-18T10:22:20.613Z,37.95
2022-12-18T10:25:22.785Z,33.83
2022-12-18T10:28:25.719Z,41.20
2022-12-18T10:31:27.813Z,38.72
2022-12-18T10:34:29.885Z,39.88
2022-12-18T10:37:31.867Z,31.90
2022-12-18T10:40:48.152Z,38.47
2022-12-18T10:44:10.080Z,37.47
2022-12-18T10:47:17.000Z,41.85
2022-12-18T10:50:20.526Z,39.83
2022-12-18T10:53:27.285Z,34.57
2022-12-18T10:56:30.727Z,39.60
2022-12-18T10:59:50.413Z,37.92
2022-12-18T11:02:53.004Z,36.30
2022-12-18T11:06:25.591Z,34.30
2022-12-18T11:09:29.356Z,38.80
2022-12-18T11:12:31.622Z,38.80
2022-12-18T11:15:34.323Z,40.70
2022-12-18T11:18:37.122Z,40.45
2022-12-18T11:21:43.285Z,38.60
2022-12-18T11:25:22.821Z,35.53
2022-12-18T11:28:36.843Z,40.27
2022-12-18T11:31:38.902Z,39.45
2022-12-18T11:34:42.338Z,38.75
2022-12-18T11:37:47.538Z,38.83
2022-12-18T11:40:57.456Z,37.70
2022-12-18T11:44:03.450Z,34.45
2022-12-18T11:47:26.652Z,34.80
2022-12-18T11:50:37.577Z,60.00
2022-12-18T11:53:41.033Z,29.35
2022-12-18T11:56:54.767Z,27.07
2022-12-18T12:00:16.833Z,28.05
2022-12-18T12:03:37.968Z,25.50
2022-12-18T12:07:03.722Z,28.95
2022-12-18T12:10:05.693Z,29.25
2022-12-18T12:13:26.299Z,37.53
2022-12-18T12:16:28.269Z,29.25
2022-12-18T12:19:47.215Z,32.58
2022-12-18T12:22:56.254Z,31.40
2022-12-18T12:26:10.311Z,27.80
2022-12-18T12:29:22.960Z,29.07
2022-12-18T12:32:27.812Z,27.80
2022-12-18T12:35:52.852Z,34.53
2022-12-18T12:39:00.926Z,25.33
2022-12-18T12:42:23.657Z,29.17
2022-12-18T12:45:30.547Z,32.83
2022-12-18T12:48:36.456Z,30.33
2022-12-18T12:51:41.452Z,30.80
2022-12-18T12:54:44.528Z,29.15
2022-12-18T12:58:06.631Z,31.37
2022-12-18T13:01:37.872Z,32.42
2022-12-18T13:05:01.960Z,29.77
2022-12-18T13:08:07.145Z,37.72
2022-12-18T13:11:47.582Z,31.57
2022-12-18T13:14:49.941Z,46.03
2022-12-18T13:18:24.957Z,44.25
2022-12-18T13:21:28.181Z,42.13
2022-12-18T13:24:31.896Z,42.55
2022-12-18T13:27:46.609Z,49.28
2022-12-18T13:30:50.940Z,41.40
2022-12-18T13:34:26.314Z,45.17
2022-12-18T13:37:42.659Z,55.08
2022-12-18T13:40:47.605Z,53.03
2022-12-18T13:43:49.911Z,49.28
2022-12-18T13:46:52.548Z,50.20
2022-12-18T13:49:54.855Z,54.05
2022-12-18T13:52:56.899Z,48.28
2022-12-18T13:55:59.323Z,49.50
2022-12-18T13:59:06.615Z,45.28
2022-12-18T14:02:19.548Z,46.88
2022-12-18T14:05:29.351Z,52.83
2022-12-18T14:08:34.750Z,57.13
2022-12-18T14:11:36.944Z,59.72
2022-12-18T14:14:42.436Z,56.03
2022-12-18T14:17:44.488Z,61.93
2022-12-18T14:20:52.133Z,59.05
2022-12-18T14:24:09.823Z,74.63
2022-12-18T14:27:21.687Z,73.57
2022-12-18T14:30:23.671Z,63.28
2022-12-18T14:33:26.928Z,85.75
2022-12-18T14:36:29.618Z,68.63
2022-12-18T14:39:31.621Z,75.93
2022-12-18T14:42:34.843Z,78.03
2022-12-18T14:45:42.247Z,77.40
2022-12-18T14:48:48.580Z,80.13
2022-12-18T14:51:58.062Z,87.47
2022-12-18T14:55:01.251Z,82.10
2022-12-18T14:58:03.304Z,94.05
2022-12-18T15:01:05.395Z,90.75
2022-12-18T15:04:27.443Z,94.32
2022-12-18T15:07:40.361Z,104.63
2022-12-18T15:10:47.914Z,153.93
2022-12-18T15:13:49.932Z,131.70
2022-12-18T15:16:53.367Z,118.80
2022-12-18T15:20:00.796Z,105.03
2022-12-18T15:23:02.829Z,107.72
2022-12-18T15:26:10.034Z,102.13
2022-12-18T15:29:24.336Z,95.03
2022-12-18T15:32:26.548Z,76.70
2022-12-18T15:35:28.586Z,82.97
2022-12-18T15:38:30.987Z,98.93
2022-12-18T15:41:35.219Z,100.73
2022-12-18T15:44:38.462Z,102.05
2022-12-18T15:47:41.095Z,105.88
2022-12-18T15:50:43.103Z,111.60
2022-12-18T15:53:45.584Z,127.53
2022-12-18T15:57:06.064Z,125.97
2022-12-18T16:00:12.653Z,153.80
2022-12-18T16:03:14.906Z,190.30
2022-12-18T16:06:17.017Z,166.02
2022-12-18T16:09:24.507Z,164.13
2022-12-18T16:12:28.193Z,160.17
2022-12-18T16:15:30.278Z,160.90
2022-12-18T16:18:32.296Z,180.75
2022-12-18T16:21:34.363Z,163.73
2022-12-18T16:24:37.349Z,164.20
2022-12-18T16:27:39.327Z,195.50
2022-12-18T16:30:41.434Z,161.07
2022-12-18T16:33:43.940Z,170.68
2022-12-18T16:36:46.416Z,156.45
2022-12-18T16:39:48.556Z,151.23
2022-12-18T16:42:50.606Z,148.43
2022-12-18T16:45:52.634Z,152.95
2022-12-18T16:48:54.643Z,150.93
2022-12-18T16:51:56.755Z,181.97
2022-12-18T16:54:58.802Z,211.77
2022-12-18T16:58:00.953Z,227.15
2022-12-18T17:01:07.936Z,223.95
2022-12-18T17:04:10.235Z,215.73
2022-12-18T17:07:12.671Z,203.52
2022-12-18T17:10:14.916Z,197.00
2022-12-18T17:13:19.232Z,182.17
2022-12-18T17:16:25.301Z,180.27
2022-12-18T17:19:27.727Z,180.07
2022-12-18T17:22:29.741Z,167.37
2022-12-18T17:25:31.789Z,175.63
2022-12-18T17:28:34.396Z,179.40
2022-12-18T17:31:36.807Z,187.57
2022-12-18T17:34:38.938Z,213.13
2022-12-18T17:37:40.949Z,216.57
2022-12-18T17:40:46.215Z,220.50
2022-12-18T17:43:55.371Z,224.30
2022-12-18T17:46:57.447Z,229.85
2022-12-18T17:49:59.589Z,227.88
2022-12-18T17:53:01.618Z,242.47
2022-12-18T17:56:05.768Z,237.07
2022-12-18T17:59:07.797Z,330.00
2022-12-18T18:02:11.496Z,417.80
2022-12-18T18:05:14.389Z,404.33
2022-12-18T18:08:20.153Z,414.45
2022-12-18T18:11:41.535Z,397.50
2022-12-18T18:14:43.590Z,381.63
2022-12-18T18:17:45.781Z,400.98
2022-12-18T18:20:47.815Z,394.20
2022-12-18T18:23:49.842Z,372.83
2022-12-18T18:26:54.710Z,402.55
2022-12-18T18:29:56.775Z,471.98
2022-12-18T18:32:58.801Z,573.35
2022-12-18T18:36:01.357Z,574.33
2022-12-18T18:39:03.457Z,402.20
2022-12-18T18:42:05.545Z,309.42
2022-12-18T18:45:07.915Z,288.17
2022-12-18T18:48:10.503Z,287.13
2022-12-18T18:51:15.593Z,278.15
2022-12-18T18:54:23.504Z,244.10
2022-12-18T18:57:30.086Z,299.88
2022-12-18T19:00:32.606Z,330.15
2022-12-18T19:03:35.918Z,304.42
2022-12-18T19:06:37.955Z,275.83
2022-12-18T19:09:41.218Z,288.42
2022-12-18T19:13:01.725Z,292.33
2022-12-18T19:16:06.248Z,303.70
2022-12-18T19:19:08.681Z,325.35
2022-12-18T19:22:11.361Z,318.15
2022-12-18T19:25:13.594Z,314.30
2022-12-18T19:28:21.803Z,323.05
2022-12-18T19:31:28.050Z,310.05
2022-12-18T19:34:32.472Z,323.27
2022-12-18T19:37:35.017Z,373.45
2022-12-18T19:40:40.720Z,433.08
2022-12-18T19:43:43.036Z,408.38
2022-12-18T19:46:46.277Z,406.77
2022-12-18T19:49:48.401Z,388.80
2022-12-18T19:52:50.453Z,337.27
2022-12-18T19:55:52.446Z,364.70
2022-12-18T19:58:54.996Z,360.10
2022-12-18T20:01:57.158Z,333.90
2022-12-18T20:04:59.336Z,319.23
2022-12-18T20:08:01.321Z,247.77
2022-12-18T20:11:04.049Z,275.92
2022-12-18T20:14:06.828Z,273.02
2022-12-18T20:17:08.978Z,254.47
2022-12-18T20:20:11.784Z,256.30
2022-12-18T20:23:15.346Z,215.02
2022-12-18T20:26:17.382Z,204.70
2022-12-18T20:29:19.577Z,241.70
2022-12-18T20:32:21.619Z,249.77
2022-12-18T20:35:23.816Z,245.35
2022-12-18T20:38:26.517Z,235.55
2022-12-18T20:41:37.414Z,241.98
2022-12-18T20:44:40.518Z,284.35
2022-12-18T20:47:42.504Z,258.43
2022-12-18T20:50:44.548Z,240.50
2022-12-18T20:53:47.015Z,263.63
2022-12-18T20:56:49.178Z,255.60
2022-12-18T20:59:51.185Z,255.90
2022-12-18T21:02:53.411Z,255.73
2022-12-18T21:05:55.528Z,216.55
2022-12-18T21:08:57.609Z,194.02
2022-12-18T21:12:18.340Z,165.68
2022-12-18T21:15:25.376Z,170.18
2022-12-18T21:18:30.800Z,145.43
2022-12-18T21:21:35.057Z,126.03
2022-12-18T21:24:40.795Z,111.30
2022-12-18T21:27:42.772Z,108.40
2022-12-18T21:30:45.127Z,108.57
2022-12-18T21:33:47.183Z,117.35
2022-12-18T21:36:50.273Z,120.18
2022-12-18T21:39:52.331Z,120.78
2022-12-18T21:43:13.944Z,111.38
2022-12-18T21:46:20.117Z,100.13
2022-12-18T21:49:22.232Z,114.40
2022-12-18T21:52:31.482Z,109.40
2022-12-18T21:55:36.172Z,96.75
2022-12-18T21:58:38.216Z,86.77
2022-12-18T22:02:00.047Z,90.55
2022-12-18T22:05:02.189Z,96.70
2022-12-18T22:08:05.123Z,103.47
2022-12-18T22:11:08.309Z,102.05
2022-12-18T22:14:10.957Z,94.80
2022-12-18T22:17:13.103Z,100.80
2022-12-18T22:20:16.188Z,87.80
2022-12-18T22:23:18.162Z,102.55
2022-12-18T22:26:20.612Z,113.55
2022-12-18T22:29:42.484Z,110.13
2022-12-18T22:32:44.531Z,106.70
2022-12-18T22:35:46.588Z,101.65
2022-12-18T22:38:48.716Z,111.18
2022-12-18T22:41:50.776Z,122.35
2022-12-18T22:44:52.816Z,110.75
2022-12-18T22:47:54.882Z,116.03
2022-12-18T22:50:59.585Z,102.67
2022-12-18T22:54:01.819Z,117.88
2022-12-18T22:57:04.715Z,113.75
2022-12-18T23:00:07.428Z,99.47
2022-12-18T23:03:09.900Z,109.90
2022-12-18T23:06:12.221Z,122.15
2022-12-18T23:09:15.691Z,103.03
2022-12-18T23:12:17.892Z,100.93
2022-12-18T23:15:27.818Z,110.47
2022-12-18T23:18:30.642Z,88.07
2022-12-18T23:21:32.701Z,87.30
2022-12-18T23:24:36.107Z,98.03
2022-12-18T23:27:38.086Z,97.97
2022-12-18T23:30:40.080Z,88.03
2022-12-18T23:33:42.262Z,84.78
2022-12-18T23:36:45.890Z,95.45
2022-12-18T23:39:48.740Z,92.13
2022-12-18T23:42:50.696Z,83.70
2022-12-18T23:45:55.823Z,96.22
2022-12-18T23:48:59.297Z,193.40
2022-12-18T23:52:01.286Z,196.70
2022-12-18T23:55:03.471Z,139.40
2022-12-18T23:58:05.582Z,136.75
